Seiyo Honor — 3FJB9 — position and weather

sailwx.info

Track history (hours):
 
Tides and Currents Weather Stations Pressure Air Temp Water Temp Dewpoint Dewpoint Depression Visibility Wind Speed Wind Dir Waves Ship Positions

Seiyo Honor

Last reported at 2018-Jan-23 10:41 UTC. Time now 2018-Feb-22 21:10 UTC.
Position N 23°55' E 118°21'.
Warning: this ship's position is 30 days out of date.

Length 111 m; draft 7 m.

Type: Cargo ship. MMSI: 373133000.

Date/timePositionNaut miles runAvg speedWind from/ knotsBaromVisibWave heightAir tempDewpointWater temp
2018-Jan-23 10:41N 23°55' E 118°21'1513.1
2018-Jan-23 09:30N 24°05' E 118°33'1012.9
2018-Jan-23 08:43N 24°13' E 118°41'45610.2
2018-Jan-21 11:49N 31°17' E 121°50'1411.6
2018-Jan-21 10:39N 31°23' E 121°35'4 0.1
2018-Jan-19 21:20N 31°21' E 121°30'2 4.7
2018-Jan-19 20:51N 31°24' E 121°31'3 6.9
2018-Jan-19 20:28N 31°24' E 121°34'5 9.3
2018-Jan-19 19:59N 31°22' E 121°39'8 9.9
2018-Jan-19 19:11N 31°16' E 121°45'212.6
2018-Jan-19 19:00N 31°14' E 121°47'611.6
2018-Jan-19 18:30N 31°10' E 121°52'611.7
2018-Jan-19 18:00N 31°07' E 121°57'611.3
2018-Jan-19 17:30N 31°04' E 122°03'611.6
2018-Jan-19 17:00N 31°03' E 122°10'4 8.7
2018-Jan-19 16:30N 31°03' E 122°15'5 8.7
2018-Jan-19 15:58N 31°02' E 122°20'511.0
2018-Jan-19 15:30N 31°01' E 122°26'  
Track history (hours):
 
Tides and Currents Weather Stations Pressure Air Temp Water Temp Dewpoint Dewpoint Depression Visibility Wind Speed Wind Dir Waves Ship Positions

Seiyo Honor

Last reported at 2018-Jan-23 10:41 UTC. Time now 2018-Feb-22 21:10 UTC.
Position N 23°55' E 118°21'.
Warning: this ship's position is 30 days out of date.

Length 111 m; draft 7 m.

Type: Cargo ship. MMSI: 373133000.

Date/timePositionNaut miles runAvg speedWind from/ knotsBaromVisibWave heightAir tempDewpointWater temp
2018-Jan-23 10:41N 23°55' E 118°21'1513.1
2018-Jan-23 09:30N 24°05' E 118°33'1012.9
2018-Jan-23 08:43N 24°13' E 118°41'45610.2
2018-Jan-21 11:49N 31°17' E 121°50'1411.6
2018-Jan-21 10:39N 31°23' E 121°35'4 0.1
2018-Jan-19 21:20N 31°21' E 121°30'2 4.7
2018-Jan-19 20:51N 31°24' E 121°31'3 6.9
2018-Jan-19 20:28N 31°24' E 121°34'5 9.3
2018-Jan-19 19:59N 31°22' E 121°39'8 9.9
2018-Jan-19 19:11N 31°16' E 121°45'212.6
2018-Jan-19 19:00N 31°14' E 121°47'611.6
2018-Jan-19 18:30N 31°10' E 121°52'611.7
2018-Jan-19 18:00N 31°07' E 121°57'611.3
2018-Jan-19 17:30N 31°04' E 122°03'611.6
2018-Jan-19 17:00N 31°03' E 122°10'4 8.7
2018-Jan-19 16:30N 31°03' E 122°15'5 8.7
2018-Jan-19 15:58N 31°02' E 122°20'511.0
2018-Jan-19 15:30N 31°01' E 122°26'  

Dump ship's entire track history